Time;durP1;ratioP1;P1;durP2;ratioP2;P2;SDS_P1;SDS_P2;PMS_P1;PMS_P2;Temp;Humidity;BMP_temperature;BMP_pressure;BME280_temperature;BME280_humidity;BME280_pressure;Samples;Min_cycle;Max_cycle;Signal;HPM_P1;HPM_P2
2021/07/17 00:00:35;;;;;;;28.03;12.20;;;18.10;1.00;;;;;;5013338;28;20871;-73
2021/07/17 00:03:03;;;;;;;22.87;10.50;;;18.10;1.00;;;;;;5019898;28;20453;-73
2021/07/17 00:05:29;;;;;;;25.87;11.80;;;18.10;1.00;;;;;;5019059;28;20577;-73
2021/07/17 00:07:54;;;;;;;22.83;10.93;;;18.10;1.00;;;;;;5017247;28;21514;-74
2021/07/17 00:10:31;;;;;;;24.47;12.20;;;18.00;1.00;;;;;;5023298;28;20469;-73
2021/07/17 00:12:57;;;;;;;26.30;12.10;;;17.90;1.00;;;;;;5018928;28;20681;-73
2021/07/17 00:15:24;;;;;;;17.70;11.03;;;18.00;1.00;;;;;;5017780;28;20455;-74
2021/07/17 00:17:50;;;;;;;23.23;11.30;;;18.00;1.00;;;;;;5018491;28;20759;-73
2021/07/17 00:20:16;;;;;;;20.50;10.47;;;18.00;1.00;;;;;;5021675;28;20435;-73
2021/07/17 00:22:42;;;;;;;23.33;11.33;;;17.90;1.00;;;;;;5020884;28;20804;-74
2021/07/17 00:25:19;;;;;;;23.20;10.90;;;17.90;1.00;;;;;;5018293;28;20459;-74
2021/07/17 00:27:46;;;;;;;19.93;12.00;;;17.90;1.00;;;;;;5022362;28;20176;-74
2021/07/17 00:30:13;;;;;;;20.83;11.20;;;17.90;1.00;;;;;;5011373;28;20439;-74
2021/07/17 00:32:38;;;;;;;26.10;11.37;;;17.90;1.00;;;;;;5021733;28;20446;-74
2021/07/17 00:35:06;;;;;;;27.27;11.33;;;17.90;1.00;;;;;;5023231;28;20446;-74
2021/07/17 00:37:33;;;;;;;22.43;10.90;;;17.90;1.00;;;;;;5014192;28;20206;-74
2021/07/17 00:39:59;;;;;;;24.27;12.83;;;17.90;1.00;;;;;;5019139;28;20461;-74
2021/07/17 00:42:25;;;;;;;23.63;12.63;;;17.90;1.00;;;;;;5019087;28;20467;-74
2021/07/17 00:44:50;;;;;;;26.70;12.77;;;17.90;1.00;;;;;;5021339;28;20565;-74
2021/07/17 00:47:17;;;;;;;35.53;13.10;;;17.90;1.00;;;;;;5021614;28;20198;-74
2021/07/17 00:49:42;;;;;;;30.53;13.00;;;17.90;1.00;;;;;;5021228;28;20266;-74
2021/07/17 00:52:08;;;;;;;27.30;13.57;;;17.90;1.00;;;;;;5023861;28;20497;-74
2021/07/17 00:54:35;;;;;;;33.23;13.83;;;17.90;1.00;;;;;;5016979;28;20226;-74
2021/07/17 00:57:05;;;;;;;26.93;13.00;;;18.00;1.00;;;;;;5017797;28;20454;-74
2021/07/17 00:59:34;;;;;;;22.63;12.10;;;18.00;1.00;;;;;;5011668;28;20457;-74
2021/07/17 01:02:01;;;;;;;27.97;13.17;;;18.00;1.00;;;;;;5007561;28;20473;-74
2021/07/17 01:04:28;;;;;;;28.77;12.53;;;17.90;1.00;;;;;;5012165;28;20457;-74
2021/07/17 01:06:57;;;;;;;24.33;12.13;;;18.00;1.00;;;;;;5016753;28;20530;-74
2021/07/17 01:09:23;;;;;;;20.70;12.70;;;17.90;1.00;;;;;;5012761;28;20589;-74
2021/07/17 01:11:51;;;;;;;20.60;13.20;;;17.90;1.00;;;;;;5017840;28;20455;-74
2021/07/17 01:14:17;;;;;;;27.97;12.37;;;17.90;1.00;;;;;;5015600;28;20470;-74
2021/07/17 01:16:42;;;;;;;25.63;13.30;;;17.90;1.00;;;;;;5017446;28;20539;-74
2021/07/17 01:19:10;;;;;;;24.97;12.73;;;17.90;1.00;;;;;;5021954;28;20447;-74
2021/07/17 01:21:36;;;;;;;17.10;11.80;;;17.90;1.00;;;;;;5017729;28;20558;-74
2021/07/17 01:24:02;;;;;;;20.53;12.27;;;17.90;1.00;;;;;;5017685;28;20468;-74
2021/07/17 01:26:28;;;;;;;26.73;12.33;;;17.90;1.00;;;;;;5023132;28;20585;-74
2021/07/17 01:28:54;;;;;;;27.23;13.77;;;18.00;1.00;;;;;;5009032;28;20524;-74
2021/07/17 01:31:20;;;;;;;32.07;14.40;;;17.90;1.00;;;;;;5010625;28;20188;-74
2021/07/17 01:33:46;;;;;;;26.53;12.20;;;17.90;1.00;;;;;;5022560;28;20528;-74
2021/07/17 01:36:12;;;;;;;33.63;12.73;;;17.90;1.00;;;;;;5021304;28;20452;-74
2021/07/17 01:38:38;;;;;;;24.53;12.47;;;17.90;1.00;;;;;;5021627;28;20212;-74
2021/07/17 01:41:04;;;;;;;31.43;13.60;;;17.90;1.00;;;;;;5018471;28;20444;-74
2021/07/17 01:43:30;;;;;;;21.70;12.40;;;17.90;1.00;;;;;;5020725;28;20199;-74
2021/07/17 01:45:58;;;;;;;25.90;14.30;;;17.90;1.00;;;;;;5017990;28;20188;-74
2021/07/17 01:48:24;;;;;;;26.53;13.97;;;17.90;1.00;;;;;;5016972;28;20754;-74
2021/07/17 01:50:50;;;;;;;21.80;13.73;;;17.90;1.00;;;;;;5014056;28;20446;-74
2021/07/17 01:53:16;;;;;;;26.20;13.10;;;17.90;1.00;;;;;;5015364;28;20973;-74
2021/07/17 01:55:42;;;;;;;31.17;14.00;;;17.90;1.00;;;;;;5024945;28;20286;-74
2021/07/17 01:58:08;;;;;;;28.63;14.00;;;17.90;1.00;;;;;;5020189;28;20450;-74
2021/07/17 02:00:34;;;;;;;28.63;14.17;;;17.90;1.00;;;;;;5017558;28;20198;-74
2021/07/17 02:02:59;;;;;;;31.23;13.30;;;17.90;1.00;;;;;;5020908;28;20458;-74
2021/07/17 02:05:25;;;;;;;25.70;14.13;;;17.90;1.00;;;;;;5024025;28;20204;-74
2021/07/17 02:07:52;;;;;;;29.37;13.17;;;17.90;1.00;;;;;;5019797;28;20187;-74
2021/07/17 02:10:27;;;;;;;30.50;13.37;;;17.80;1.00;;;;;;5017740;28;20557;-74
2021/07/17 02:13:08;;;;;;;21.50;12.30;;;17.80;1.00;;;;;;5020908;28;20460;-73
2021/07/17 02:15:51;;;;;;;26.40;13.03;;;17.80;1.00;;;;;;5023817;28;20558;-74
2021/07/17 02:18:23;;;;;;;22.30;12.60;;;17.80;1.00;;;;;;5023734;28;20446;-74
2021/07/17 02:20:49;;;;;;;22.43;11.90;;;17.80;1.00;;;;;;5013270;28;20454;-74
2021/07/17 02:23:15;;;;;;;26.90;12.70;;;17.80;1.00;;;;;;5018630;28;20537;-74
2021/07/17 02:25:41;;;;;;;26.20;13.67;;;17.80;1.00;;;;;;5015540;28;20585;-74
2021/07/17 02:28:06;;;;;;;27.23;13.77;;;17.80;1.00;;;;;;5024378;28;20246;-74
2021/07/17 02:30:32;;;;;;;25.20;14.13;;;17.80;1.00;;;;;;5016919;28;20577;-74
2021/07/17 02:32:58;;;;;;;26.00;14.30;;;17.80;1.00;;;;;;5020846;28;20820;-74
2021/07/17 02:35:24;;;;;;;24.73;13.00;;;17.80;1.00;;;;;;5007883;28;20198;-74
2021/07/17 02:37:50;;;;;;;27.20;11.80;;;17.70;1.00;;;;;;5015305;28;20231;-74
2021/07/17 02:40:16;;;;;;;26.90;13.00;;;17.80;1.00;;;;;;5020608;28;20282;-74
2021/07/17 02:42:42;;;;;;;32.30;13.00;;;17.80;1.00;;;;;;5015438;28;20447;-74
2021/07/17 02:45:08;;;;;;;27.90;13.80;;;17.80;1.00;;;;;;5022272;28;20454;-73
2021/07/17 02:47:35;;;;;;;23.77;12.33;;;17.80;1.00;;;;;;5018755;28;20504;-74
2021/07/17 02:50:01;;;;;;;27.40;11.73;;;17.80;1.00;;;;;;5022344;28;20472;-74
2021/07/17 02:52:27;;;;;;;23.13;12.27;;;17.80;1.00;;;;;;5016588;28;20545;-74
2021/07/17 02:54:52;;;;;;;28.50;13.00;;;17.80;1.00;;;;;;5015316;28;20484;-74
2021/07/17 02:57:18;;;;;;;25.07;12.50;;;17.70;1.00;;;;;;5021189;28;20642;-74
2021/07/17 02:59:44;;;;;;;18.03;12.97;;;17.70;1.00;;;;;;5016989;28;20184;-74
2021/07/17 03:02:09;;;;;;;20.43;12.13;;;17.70;1.00;;;;;;5013497;28;20275;-74
2021/07/17 03:04:35;;;;;;;21.73;11.80;;;17.60;1.00;;;;;;5019299;28;20700;-74
2021/07/17 03:07:01;;;;;;;23.27;13.10;;;17.60;1.00;;;;;;5014512;28;20657;-74
2021/07/17 03:09:27;;;;;;;23.80;11.90;;;17.70;1.00;;;;;;5017787;28;20486;-74
2021/07/17 03:11:52;;;;;;;27.30;12.73;;;17.70;1.00;;;;;;5023312;28;21041;-74
2021/07/17 03:14:19;;;;;;;27.17;12.20;;;17.60;1.00;;;;;;5019090;28;20704;-73
2021/07/17 03:16:45;;;;;;;28.77;12.33;;;17.70;1.00;;;;;;5016631;28;20210;-74
2021/07/17 03:19:10;;;;;;;29.77;13.17;;;17.70;1.00;;;;;;5018005;28;20435;-74
2021/07/17 03:21:36;;;;;;;24.30;12.03;;;17.70;1.00;;;;;;5017475;28;20244;-74
2021/07/17 03:24:02;;;;;;;21.03;11.57;;;17.70;1.00;;;;;;5016352;28;20294;-74
2021/07/17 03:26:27;;;;;;;35.17;13.30;;;17.70;1.00;;;;;;5011143;28;20207;-74
2021/07/17 03:28:53;;;;;;;26.80;13.30;;;17.70;1.00;;;;;;5024354;28;20204;-74
2021/07/17 03:31:30;;;;;;;31.77;12.50;;;17.70;1.00;;;;;;5019757;28;20184;-74
2021/07/17 03:33:56;;;;;;;29.93;12.77;;;17.70;1.00;;;;;;5023798;28;20180;-73
2021/07/17 03:36:23;;;;;;;20.27;12.43;;;17.70;1.00;;;;;;5021229;28;20446;-73
2021/07/17 03:38:48;;;;;;;26.13;13.07;;;17.70;1.00;;;;;;5019901;28;20573;-74
2021/07/17 03:41:14;;;;;;;21.30;12.67;;;17.60;1.00;;;;;;5020253;28;20533;-73
2021/07/17 03:43:40;;;;;;;27.77;12.43;;;17.60;1.00;;;;;;5017893;28;20184;-74
2021/07/17 03:46:06;;;;;;;23.80;13.17;;;17.60;1.00;;;;;;5015364;28;20504;-74
2021/07/17 03:48:31;;;;;;;22.93;13.20;;;17.70;1.00;;;;;;5025919;28;20223;-74
2021/07/17 03:50:57;;;;;;;22.60;12.63;;;17.70;1.00;;;;;;5023202;28;20191;-74
2021/07/17 03:53:23;;;;;;;27.03;12.83;;;17.60;1.00;;;;;;5022688;28;20222;-74
2021/07/17 03:55:48;;;;;;;28.70;13.13;;;17.60;1.00;;;;;;5009255;28;20679;-74
2021/07/17 03:58:14;;;;;;;22.63;12.67;;;17.50;1.00;;;;;;5017256;28;20271;-74
2021/07/17 04:00:39;;;;;;;32.90;12.13;;;17.50;1.00;;;;;;5009895;28;21312;-74
2021/07/17 04:03:05;;;;;;;27.77;14.57;;;17.50;1.00;;;;;;5012194;28;20203;-74
2021/07/17 04:05:31;;;;;;;23.87;12.40;;;17.50;1.00;;;;;;5025493;28;20237;-74
2021/07/17 04:07:57;;;;;;;26.87;12.90;;;17.50;1.00;;;;;;5014585;28;20237;-74
2021/07/17 04:10:23;;;;;;;23.97;12.40;;;17.50;1.00;;;;;;5026846;28;20472;-74
2021/07/17 04:12:49;;;;;;;27.20;12.00;;;17.40;1.00;;;;;;5015350;28;20458;-74
2021/07/17 04:15:15;;;;;;;20.57;10.20;;;17.40;1.00;;;;;;5026758;28;20438;-74
2021/07/17 04:17:41;;;;;;;19.10;10.40;;;17.40;1.00;;;;;;5016047;28;21058;-74
2021/07/17 04:20:08;;;;;;;20.83;11.83;;;17.50;1.00;;;;;;5028777;28;20469;-74
2021/07/17 04:22:34;;;;;;;20.23;11.40;;;17.50;1.00;;;;;;5020496;28;20499;-74
2021/07/17 04:25:00;;;;;;;25.27;11.57;;;17.50;1.00;;;;;;5031916;28;20462;-74
2021/07/17 04:27:25;;;;;;;18.67;11.67;;;17.50;1.00;;;;;;5028008;28;20448;-74
2021/07/17 04:29:51;;;;;;;25.57;11.07;;;17.50;1.00;;;;;;5024130;28;20207;-74
2021/07/17 04:32:17;;;;;;;24.50;11.60;;;17.50;1.00;;;;;;5015257;28;20830;-74
2021/07/17 04:34:42;;;;;;;18.17;10.40;;;17.50;1.00;;;;;;5019115;28;20540;-74
2021/07/17 04:37:08;;;;;;;15.23;10.60;;;17.60;1.00;;;;;;5022694;28;20191;-74
2021/07/17 04:39:34;;;;;;;24.17;11.33;;;17.60;1.00;;;;;;5030950;28;20209;-74
2021/07/17 04:42:00;;;;;;;24.07;11.43;;;17.60;1.00;;;;;;5024320;28;20190;-74
2021/07/17 04:44:26;;;;;;;20.57;10.63;;;17.50;1.00;;;;;;5022840;28;20870;-74
2021/07/17 04:46:51;;;;;;;26.13;12.20;;;17.50;1.00;;;;;;5023490;28;20194;-74
2021/07/17 04:49:17;;;;;;;20.53;11.50;;;17.60;1.00;;;;;;5030214;28;20229;-74
2021/07/17 04:51:42;;;;;;;18.67;12.03;;;17.50;1.00;;;;;;5029724;28;20295;-73
2021/07/17 04:54:08;;;;;;;22.47;11.53;;;17.60;1.00;;;;;;5015030;28;20196;-74
2021/07/17 04:56:34;;;;;;;21.07;11.93;;;17.60;1.00;;;;;;5031583;28;20187;-74
2021/07/17 04:58:59;;;;;;;18.23;11.03;;;17.50;1.00;;;;;;5020964;28;20187;-74
2021/07/17 05:01:25;;;;;;;18.83;11.20;;;17.60;1.00;;;;;;5015005;28;20192;-74
2021/07/17 05:03:51;;;;;;;28.00;12.77;;;17.60;1.00;;;;;;5020432;28;20191;-74
2021/07/17 05:06:16;;;;;;;23.67;12.33;;;17.60;1.00;;;;;;5021918;28;20286;-74
2021/07/17 05:08:42;;;;;;;22.30;11.97;;;17.60;1.00;;;;;;5016942;28;20741;-74
2021/07/17 05:11:07;;;;;;;27.73;13.47;;;17.60;1.00;;;;;;5021125;28;20208;-74
2021/07/17 05:13:34;;;;;;;23.30;12.87;;;17.60;1.00;;;;;;5022404;28;20187;-74
2021/07/17 05:16:00;;;;;;;20.90;12.37;;;17.60;1.00;;;;;;5016667;28;20689;-74
2021/07/17 05:18:26;;;;;;;24.50;13.10;;;17.60;1.00;;;;;;5023054;28;20437;-74
2021/07/17 05:20:51;;;;;;;24.70;12.83;;;17.60;1.00;;;;;;5016894;28;20724;-74
2021/07/17 05:23:17;;;;;;;27.87;13.67;;;17.60;1.00;;;;;;5019061;28;20237;-74
2021/07/17 05:25:44;;;;;;;27.77;14.43;;;17.60;1.00;;;;;;5028634;28;20530;-74
2021/07/17 05:28:10;;;;;;;30.20;13.67;;;17.60;1.00;;;;;;5031163;28;20191;-75
2021/07/17 05:30:36;;;;;;;23.83;14.10;;;17.50;1.00;;;;;;5033027;28;20480;-74
2021/07/17 05:33:02;;;;;;;26.23;13.90;;;17.50;1.00;;;;;;5034940;28;20192;-74
2021/07/17 05:35:28;;;;;;;25.87;13.03;;;17.50;1.00;;;;;;5037353;28;20642;-74
2021/07/17 05:37:57;;;;;;;26.90;13.07;;;17.50;1.00;;;;;;5024625;28;20394;-74
2021/07/17 05:40:23;;;;;;;24.63;14.27;;;17.50;1.00;;;;;;5033582;28;20985;-73
2021/07/17 05:42:49;;;;;;;26.30;13.50;;;17.50;1.00;;;;;;5025257;28;20454;-74
2021/07/17 05:45:15;;;;;;;26.50;14.27;;;17.50;1.00;;;;;;5016712;28;20451;-74
2021/07/17 05:47:41;;;;;;;18.77;12.50;;;17.60;1.00;;;;;;5018994;28;20330;-74
2021/07/17 05:50:07;;;;;;;24.90;13.07;;;17.60;1.00;;;;;;5028302;28;20571;-74
2021/07/17 05:52:33;;;;;;;21.10;12.57;;;17.60;1.00;;;;;;5014633;28;20200;-73
2021/07/17 05:54:59;;;;;;;27.57;14.23;;;17.50;1.00;;;;;;5026457;28;20461;-73
2021/07/17 05:57:24;;;;;;;29.80;13.07;;;17.50;1.00;;;;;;5029276;28;20171;-74
2021/07/17 05:59:50;;;;;;;23.63;13.40;;;17.50;1.00;;;;;;5019744;28;21204;-74
2021/07/17 06:02:17;;;;;;;24.20;12.30;;;17.50;1.00;;;;;;5019472;28;20184;-74
2021/07/17 06:04:43;;;;;;;21.83;12.63;;;17.50;1.00;;;;;;5027077;28;20314;-73
2021/07/17 06:07:09;;;;;;;24.73;13.10;;;17.50;1.00;;;;;;5026681;28;20525;-74
2021/07/17 06:09:35;;;;;;;26.20;12.57;;;17.50;1.00;;;;;;5025278;28;20559;-74
2021/07/17 06:12:01;;;;;;;23.23;12.20;;;17.60;1.00;;;;;;5021674;28;20250;-73
2021/07/17 06:14:27;;;;;;;21.43;13.00;;;17.60;1.00;;;;;;5023399;28;20449;-74
2021/07/17 06:16:53;;;;;;;20.90;12.73;;;17.60;1.00;;;;;;5015913;28;20704;-74
2021/07/17 06:19:18;;;;;;;28.17;12.40;;;17.60;1.00;;;;;;5017905;28;20325;-74
2021/07/17 06:21:44;;;;;;;24.80;12.67;;;17.50;1.00;;;;;;5012873;28;20677;-73
2021/07/17 06:24:10;;;;;;;24.70;11.83;;;17.50;1.00;;;;;;5017395;28;20222;-74
2021/07/17 06:26:36;;;;;;;26.67;13.03;;;17.50;1.00;;;;;;5025661;28;20191;-73
2021/07/17 06:29:02;;;;;;;25.80;14.07;;;17.50;1.00;;;;;;5021437;28;20481;-73
2021/07/17 06:31:28;;;;;;;26.10;13.40;;;17.50;1.00;;;;;;5025338;28;20183;-73
2021/07/17 06:33:53;;;;;;;17.60;11.33;;;17.50;1.00;;;;;;5024750;28;20518;-73
2021/07/17 06:36:21;;;;;;;20.67;12.10;;;17.50;1.00;;;;;;5022912;28;20245;-73
2021/07/17 06:38:47;;;;;;;31.97;13.10;;;17.50;1.00;;;;;;5019361;28;20183;-73
2021/07/17 06:41:13;;;;;;;24.93;12.20;;;17.60;1.00;;;;;;5014836;28;20873;-74
2021/07/17 06:43:38;;;;;;;23.20;12.37;;;17.60;1.00;;;;;;5018858;28;20666;-74
2021/07/17 06:46:04;;;;;;;32.83;13.10;;;17.60;1.00;;;;;;5014290;28;20195;-73
2021/07/17 06:48:30;;;;;;;24.57;12.97;;;17.60;1.00;;;;;;5029997;28;20628;-73
2021/07/17 06:50:56;;;;;;;29.97;14.30;;;17.60;1.00;;;;;;5030039;28;20443;-73
2021/07/17 06:53:22;;;;;;;29.53;14.00;;;17.60;1.00;;;;;;5024229;28;20523;-73
2021/07/17 06:55:48;;;;;;;21.63;13.20;;;17.60;1.00;;;;;;5024353;28;20494;-74
2021/07/17 06:58:14;;;;;;;26.63;14.73;;;17.60;1.00;;;;;;5031200;28;20172;-73
2021/07/17 07:00:39;;;;;;;24.97;14.37;;;17.60;1.00;;;;;;5022366;28;20652;-74
2021/07/17 07:03:05;;;;;;;29.27;12.97;;;17.60;1.00;;;;;;5014801;28;20566;-73
2021/07/17 07:05:31;;;;;;;21.47;13.00;;;17.60;1.00;;;;;;5016437;28;20310;-74
2021/07/17 07:07:57;;;;;;;22.77;12.73;;;17.60;1.00;;;;;;5022358;28;20187;-74
2021/07/17 07:10:22;;;;;;;23.70;14.57;;;17.60;1.00;;;;;;5017816;28;20218;-73
2021/07/17 07:12:49;;;;;;;28.93;12.80;;;17.60;1.00;;;;;;5027348;28;20523;-74
2021/07/17 07:15:15;;;;;;;24.47;12.77;;;17.70;1.00;;;;;;5017625;28;20195;-74
2021/07/17 07:17:41;;;;;;;21.43;12.70;;;17.70;1.00;;;;;;5021743;28;20450;-73
2021/07/17 07:20:11;;;;;;;26.43;13.50;;;17.70;1.00;;;;;;5023100;28;20442;-74
2021/07/17 07:22:38;;;;;;;30.37;12.90;;;17.80;1.00;;;;;;5018832;28;20480;-73
2021/07/17 07:25:06;;;;;;;29.63;11.90;;;17.80;1.00;;;;;;5016147;28;20462;-73
2021/07/17 07:27:32;;;;;;;22.17;11.57;;;17.80;1.00;;;;;;5025239;28;20453;-74
2021/07/17 07:29:58;;;;;;;26.53;12.90;;;17.70;1.00;;;;;;5021771;28;20485;-73
2021/07/17 07:32:23;;;;;;;24.53;12.43;;;17.70;1.00;;;;;;5018141;28;20473;-73
2021/07/17 07:34:49;;;;;;;32.00;14.03;;;17.60;1.00;;;;;;5017898;28;20180;-73
2021/07/17 07:37:15;;;;;;;20.23;12.33;;;17.60;1.00;;;;;;5014319;28;20610;-74
2021/07/17 07:39:40;;;;;;;23.47;10.77;;;17.60;1.00;;;;;;5021381;28;20233;-74
2021/07/17 07:42:06;;;;;;;22.43;12.33;;;17.70;1.00;;;;;;5006176;28;20223;-74
2021/07/17 07:44:32;;;;;;;24.53;12.63;;;17.80;1.00;;;;;;5015170;28;20210;-74
2021/07/17 07:46:58;;;;;;;25.20;11.40;;;17.90;1.00;;;;;;5022755;28;20286;-74
2021/07/17 07:49:24;;;;;;;24.93;11.77;;;17.90;1.00;;;;;;5027175;28;20563;-74
2021/07/17 07:51:50;;;;;;;23.40;11.60;;;17.90;1.00;;;;;;5020452;28;20451;-74
2021/07/17 07:54:15;;;;;;;28.10;12.90;;;17.90;1.00;;;;;;5019758;28;20674;-74
2021/07/17 07:56:41;;;;;;;22.10;11.47;;;17.90;1.00;;;;;;5023012;28;20183;-74
2021/07/17 07:59:07;;;;;;;26.03;12.20;;;18.00;1.00;;;;;;5018366;28;20187;-74
2021/07/17 08:01:33;;;;;;;18.80;11.60;;;17.90;1.00;;;;;;5025391;28;20215;-74
2021/07/17 08:03:58;;;;;;;17.97;11.77;;;18.00;1.00;;;;;;5018125;28;20596;-74
2021/07/17 08:06:24;;;;;;;22.70;11.57;;;18.00;1.00;;;;;;5023500;28;20450;-74
2021/07/17 08:08:49;;;;;;;21.97;10.43;;;18.00;1.00;;;;;;5022512;28;20610;-74
2021/07/17 08:11:15;;;;;;;25.33;10.93;;;17.90;1.00;;;;;;5023858;28;20345;-74
2021/07/17 08:13:42;;;;;;;26.43;11.30;;;17.90;1.00;;;;;;5021977;28;20950;-74
2021/07/17 08:16:08;;;;;;;24.00;12.10;;;17.90;1.00;;;;;;5023927;28;20530;-74
2021/07/17 08:18:34;;;;;;;20.67;10.87;;;17.90;1.00;;;;;;5022025;28;20442;-74
2021/07/17 08:20:59;;;;;;;34.67;12.13;;;18.00;1.00;;;;;;5020139;28;20184;-74
2021/07/17 08:23:25;;;;;;;26.93;12.57;;;18.10;1.00;;;;;;5013893;28;20341;-74
2021/07/17 08:25:51;;;;;;;24.93;11.93;;;18.10;1.00;;;;;;5022197;28;20207;-74
2021/07/17 08:28:17;;;;;;;21.83;10.60;;;18.10;1.00;;;;;;5022622;28;20188;-74
2021/07/17 08:30:44;;;;;;;20.13;10.30;;;18.10;1.00;;;;;;5020965;28;20442;-74
2021/07/17 08:33:10;;;;;;;18.43;10.97;;;18.20;1.00;;;;;;5022908;28;20581;-74
2021/07/17 08:35:35;;;;;;;25.37;10.63;;;18.20;1.00;;;;;;5024177;28;20559;-74
2021/07/17 08:38:01;;;;;;;24.73;10.90;;;18.20;1.00;;;;;;5015907;28;20184;-74
2021/07/17 08:40:27;;;;;;;27.37;11.47;;;18.20;1.00;;;;;;5021791;28;20207;-74
2021/07/17 08:42:55;;;;;;;28.10;12.30;;;18.20;1.00;;;;;;5018883;28;20191;-74
2021/07/17 08:45:22;;;;;;;23.43;12.00;;;18.20;1.00;;;;;;5024021;28;20433;-74
2021/07/17 08:47:50;;;;;;;24.23;11.90;;;18.20;1.00;;;;;;5025128;28;20819;-74
2021/07/17 08:50:21;;;;;;;27.17;12.00;;;18.20;1.00;;;;;;5020338;28;20470;-74
2021/07/17 08:52:52;;;;;;;21.30;12.87;;;18.30;1.00;;;;;;5022604;28;20474;-74
2021/07/17 08:55:18;;;;;;;19.57;11.23;;;18.30;1.00;;;;;;5011886;28;20454;-74
2021/07/17 08:57:44;;;;;;;18.70;12.23;;;18.30;1.00;;;;;;5018719;28;20475;-74
2021/07/17 09:00:11;;;;;;;23.23;10.70;;;18.40;1.00;;;;;;5017157;28;20455;-74
2021/07/17 09:02:39;;;;;;;20.43;11.20;;;18.50;1.00;;;;;;5025678;28;20458;-74
2021/07/17 09:05:09;;;;;;;17.10;10.50;;;18.60;1.00;;;;;;5014188;28;20461;-74
2021/07/17 09:07:36;;;;;;;24.33;11.57;;;18.60;1.00;;;;;;5023064;28;20516;-74
2021/07/17 09:10:38;;;;;;;17.80;10.93;;;18.70;1.00;;;;;;5023243;28;20508;-74
2021/07/17 09:13:25;;;;;;;26.87;11.00;;;18.80;1.00;;;;;;5019884;28;20563;-74
2021/07/17 09:15:50;;;;;;;24.00;10.30;;;18.80;1.00;;;;;;5021502;28;20552;-74
2021/07/17 09:18:16;;;;;;;19.37;10.70;;;18.90;1.00;;;;;;5022568;28;20948;-74
2021/07/17 09:20:56;;;;;;;23.20;10.43;;;19.20;1.00;;;;;;5022795;28;22481;-74
2021/07/17 09:23:27;;;;;;;17.87;10.43;;;19.30;1.00;;;;;;5020534;28;20329;-74
2021/07/17 09:25:54;;;;;;;20.97;10.47;;;19.40;1.00;;;;;;5019848;28;20465;-74
2021/07/17 09:28:21;;;;;;;18.50;9.60;;;19.40;1.00;;;;;;5015620;28;20442;-74
2021/07/17 09:30:51;;;;;;;17.63;9.60;;;19.40;1.00;;;;;;5019628;28;20454;-74
2021/07/17 09:33:17;;;;;;;16.83;9.27;;;19.50;1.00;;;;;;5023434;28;20450;-74
2021/07/17 09:35:48;;;;;;;25.40;9.10;;;19.40;1.00;;;;;;5020946;28;20467;-74
2021/07/17 09:38:16;;;;;;;17.40;9.03;;;19.40;1.00;;;;;;5021090;28;20426;-74
2021/07/17 09:40:57;;;;;;;23.23;10.47;;;19.40;1.00;;;;;;5027572;28;20560;-74
2021/07/17 09:43:30;;;;;;;18.87;9.63;;;19.40;1.00;;;;;;5022856;28;20454;-74
2021/07/17 09:45:57;;;;;;;24.07;9.20;;;19.50;1.00;;;;;;5020198;28;20453;-74
2021/07/17 09:48:29;;;;;;;20.30;9.73;;;19.60;1.00;;;;;;5019113;28;20464;-74
2021/07/17 09:50:56;;;;;;;20.83;8.37;;;19.80;1.00;;;;;;5021870;28;20842;-74
2021/07/17 09:53:40;;;;;;;18.90;8.60;;;19.90;1.00;;;;;;5021542;28;20451;-74
2021/07/17 09:56:31;;;;;;;18.70;9.47;;;20.20;1.00;;;;;;5029932;28;20504;-74
2021/07/17 09:59:02;;;;;;;28.60;10.00;;;20.50;1.00;;;;;;5028363;28;20481;-75
2021/07/17 10:01:36;;;;;;;17.23;8.93;;;20.80;1.00;;;;;;5017286;28;20454;-74
2021/07/17 10:04:15;;;;;;;17.70;8.00;;;21.00;1.00;;;;;;5021158;28;20449;-74
2021/07/17 10:07:01;;;;;;;18.57;9.07;;;20.90;1.00;;;;;;5024177;28;20442;-74
2021/07/17 10:09:32;;;;;;;17.93;8.10;;;20.80;1.00;;;;;;5022738;28;21020;-74
2021/07/17 10:12:08;;;;;;;15.03;8.77;;;20.70;1.00;;;;;;5021235;28;20785;-74
2021/07/17 10:14:39;;;;;;;16.53;7.93;;;20.70;1.00;;;;;;5027000;28;20854;-75
2021/07/17 10:17:04;;;;;;;20.47;9.00;;;20.80;1.00;;;;;;5023163;28;20443;-74
2021/07/17 10:19:30;;;;;;;17.20;8.30;;;21.20;1.00;;;;;;5023311;28;20473;-74
2021/07/17 10:21:56;;;;;;;16.67;7.27;;;21.30;1.00;;;;;;5040579;28;20230;-75
2021/07/17 10:24:23;;;;;;;13.20;7.30;;;21.50;1.00;;;;;;5021770;28;20517;-75
2021/07/17 10:26:51;;;;;;;13.03;6.60;;;21.60;1.00;;;;;;5020731;28;20474;-74
2021/07/17 10:29:18;;;;;;;15.10;8.00;;;21.80;1.00;;;;;;5026588;28;20469;-75
2021/07/17 10:31:45;;;;;;;14.47;7.50;;;22.00;1.00;;;;;;5022250;28;20462;-75
2021/07/17 10:34:12;;;;;;;17.50;6.87;;;22.20;1.00;;;;;;5024205;28;20435;-75
2021/07/17 10:36:46;;;;;;;10.57;6.77;;;22.30;1.00;;;;;;5021230;28;20469;-75
2021/07/17 10:39:12;;;;;;;14.87;8.03;;;22.40;1.00;;;;;;5018255;28;20485;-75
2021/07/17 10:41:41;;;;;;;14.60;7.50;;;22.30;1.00;;;;;;5019159;28;20466;-74
2021/07/17 10:44:07;;;;;;;10.63;5.90;;;22.10;1.00;;;;;;5017010;28;21033;-75
2021/07/17 10:46:34;;;;;;;15.70;6.97;;;22.20;1.00;;;;;;5010944;28;20457;-75
2021/07/17 10:49:02;;;;;;;14.93;6.33;;;22.40;1.00;;;;;;5016315;28;20213;-75
2021/07/17 10:51:33;;;;;;;15.47;8.23;;;22.50;1.00;;;;;;5012898;28;21410;-75
2021/07/17 10:54:20;;;;;;;11.97;6.20;;;22.70;1.00;;;;;;5018702;28;20482;-74
2021/07/17 10:56:47;;;;;;;11.13;5.37;;;22.80;1.00;;;;;;5017694;28;20834;-74
2021/07/17 10:59:12;;;;;;;13.10;5.73;;;22.90;1.00;;;;;;5016290;28;20458;-75
2021/07/17 11:02:01;;;;;;;12.00;6.07;;;22.90;1.00;;;;;;5011457;28;20479;-75
2021/07/17 11:04:55;;;;;;;9.57;5.30;;;22.90;1.00;;;;;;5012795;28;20542;-76
2021/07/17 11:07:23;;;;;;;16.23;5.17;;;22.90;1.00;;;;;;5014894;28;20450;-75
2021/07/17 11:09:50;;;;;;;20.73;5.60;;;23.00;1.00;;;;;;5021937;28;20494;-76
2021/07/17 11:12:22;;;;;;;15.20;4.70;;;23.20;1.00;;;;;;5013108;28;20553;-75
2021/07/17 11:14:49;;;;;;;7.93;4.20;;;23.50;1.00;;;;;;5013052;28;21178;-74
2021/07/17 11:17:45;;;;;;;6.80;3.90;;;23.60;1.00;;;;;;5021723;28;20496;-75
2021/07/17 11:20:34;;;;;;;7.60;3.70;;;23.70;1.00;;;;;;5021042;28;20462;-74
2021/07/17 11:23:08;;;;;;;9.27;3.67;;;23.70;1.00;;;;;;5017594;28;20475;-75
2021/07/17 11:25:35;;;;;;;10.07;4.17;;;23.80;1.00;;;;;;5016062;28;20470;-76
2021/07/17 11:28:01;;;;;;;7.50;2.73;;;23.90;1.00;;;;;;5023856;28;20548;-75
2021/07/17 11:30:33;;;;;;;6.80;3.67;;;24.00;1.00;;;;;;5019228;28;20595;-76
2021/07/17 11:33:04;;;;;;;7.00;3.80;;;24.00;1.00;;;;;;5018024;28;21022;-75
2021/07/17 11:35:32;;;;;;;9.17;3.37;;;24.10;1.00;;;;;;5018689;28;20458;-75
2021/07/17 11:37:58;;;;;;;6.07;3.17;;;24.10;1.00;;;;;;5021365;28;21086;-75
2021/07/17 11:40:24;;;;;;;11.20;3.87;;;24.20;1.00;;;;;;5012469;28;20478;-75
2021/07/17 11:42:50;;;;;;;7.17;3.23;;;24.30;1.00;;;;;;5016102;28;20454;-75
2021/07/17 11:45:16;;;;;;;7.20;3.00;;;24.30;1.00;;;;;;5022087;28;20824;-75
2021/07/17 11:47:43;;;;;;;5.43;3.57;;;24.40;1.00;;;;;;5017315;28;20451;-75
2021/07/17 11:50:10;;;;;;;4.50;2.80;;;24.30;1.00;;;;;;5017875;28;20473;-75
2021/07/17 11:52:37;;;;;;;7.60;4.13;;;24.30;1.00;;;;;;5020798;28;20441;-75
2021/07/17 11:55:11;;;;;;;6.20;3.30;;;24.40;1.00;;;;;;5021288;28;21119;-75
2021/07/17 11:57:40;;;;;;;6.47;2.90;;;24.40;1.00;;;;;;5024478;28;20505;-75
2021/07/17 12:00:17;;;;;;;7.43;3.70;;;24.50;1.00;;;;;;5018312;28;20742;-75
2021/07/17 12:02:55;;;;;;;5.57;2.80;;;24.40;1.00;;;;;;5013921;28;20446;-75
2021/07/17 12:05:22;;;;;;;33.67;3.97;;;24.30;1.00;;;;;;5016258;28;20891;-75
2021/07/17 12:07:49;;;;;;;12.30;3.13;;;24.30;1.00;;;;;;5017989;28;20447;-75
2021/07/17 12:10:23;;;;;;;5.87;2.40;;;24.40;1.00;;;;;;5013133;28;20860;-75
2021/07/17 12:12:54;;;;;;;6.63;2.67;;;24.50;1.00;;;;;;5009828;28;20450;-75
2021/07/17 12:15:24;;;;;;;7.03;3.20;;;24.60;1.00;;;;;;5012412;28;20621;-76
2021/07/17 12:17:52;;;;;;;7.83;3.07;;;24.50;1.00;;;;;;5010987;28;20862;-75
2021/07/17 12:20:25;;;;;;;5.77;2.63;;;24.60;1.00;;;;;;5014598;28;20462;-76
2021/07/17 12:23:13;;;;;;;9.50;3.00;;;24.70;1.00;;;;;;5009116;28;20537;-75
2021/07/17 12:25:43;;;;;;;7.27;3.10;;;24.70;1.00;;;;;;5007370;28;20501;-76
2021/07/17 12:28:34;;;;;;;6.63;2.63;;;24.70;1.00;;;;;;5014734;28;20952;-75
2021/07/17 12:31:02;;;;;;;5.50;2.50;;;24.60;1.00;;;;;;5013561;28;21487;-75
2021/07/17 12:33:33;;;;;;;10.43;3.43;;;24.80;1.00;;;;;;5013547;28;20496;-75
2021/07/17 12:36:17;;;;;;;9.10;3.17;;;24.90;1.00;;;;;;5011322;28;20446;-75
2021/07/17 12:38:52;;;;;;;6.10;2.70;;;24.90;1.00;;;;;;5014528;28;20481;-76
2021/07/17 12:41:26;;;;;;;5.27;2.50;;;24.90;1.00;;;;;;5004427;28;20866;-76
2021/07/17 12:43:54;;;;;;;7.73;2.67;;;24.80;1.00;;;;;;5006989;28;20453;-76